Time;durP1;ratioP1;P1;durP2;ratioP2;P2;SDS_P1;SDS_P2;PMS_P1;PMS_P2;Temp;Humidity;BMP_temperature;BMP_pressure;BME280_temperature;BME280_humidity;BME280_pressure;Samples;Min_cycle;Max_cycle;Signal;HPM_P1;HPM_P2
2023/01/15 00:01:33;;;;;;;47.23;45.13;;;6.40;99.90;;;;;;5002336;28;20474;-81
2023/01/15 00:04:02;;;;;;;52.43;50.53;;;6.30;99.90;;;;;;5000934;28;20451;-81
2023/01/15 00:06:31;;;;;;;59.90;57.80;;;6.20;99.90;;;;;;5001510;28;20458;-81
2023/01/15 00:08:58;;;;;;;62.07;59.77;;;6.30;99.90;;;;;;5001437;28;20470;-82
2023/01/15 00:11:25;;;;;;;88.93;85.73;;;6.20;99.90;;;;;;5001609;28;20474;-82
2023/01/15 00:13:52;;;;;;;93.53;89.97;;;6.20;99.90;;;;;;5001378;28;20469;-82
2023/01/15 00:16:21;;;;;;;88.57;85.57;;;6.10;99.90;;;;;;5001294;28;20455;-80
2023/01/15 00:18:52;;;;;;;129.47;125.27;;;6.00;99.90;;;;;;5000999;28;20827;-82
2023/01/15 00:21:18;;;;;;;133.83;129.47;;;6.00;99.90;;;;;;5001956;28;20478;-81
2023/01/15 00:29:16;;;;;;;175.57;169.83;;;5.90;99.90;;;;;;5001135;28;20493;-82
2023/01/15 00:31:44;;;;;;;227.23;219.73;;;5.90;99.90;;;;;;5001544;28;20481;-81
2023/01/15 00:34:13;;;;;;;266.93;258.33;;;5.90;99.90;;;;;;5001413;28;20482;-81
2023/01/15 00:36:40;;;;;;;331.90;320.43;;;5.90;99.90;;;;;;5001331;28;20454;-81
2023/01/15 00:39:08;;;;;;;343.80;331.50;;;5.90;99.90;;;;;;5001134;28;20497;-81
2023/01/15 00:41:35;;;;;;;392.50;378.03;;;5.90;99.90;;;;;;5001111;28;21044;-81
2023/01/15 00:44:02;;;;;;;397.43;383.13;;;5.90;99.90;;;;;;5000804;28;20537;-82
2023/01/15 00:46:29;;;;;;;387.93;373.77;;;5.80;99.90;;;;;;5000738;28;20526;-82
2023/01/15 00:48:57;;;;;;;396.57;381.87;;;5.80;99.90;;;;;;5001816;28;20545;-80
2023/01/15 00:51:25;;;;;;;393.87;379.40;;;5.80;99.90;;;;;;5000172;28;20474;-81
2023/01/15 00:53:52;;;;;;;406.50;391.37;;;5.70;99.90;;;;;;5000856;28;20458;-81
2023/01/15 00:56:18;;;;;;;378.80;364.83;;;5.70;99.90;;;;;;5000139;28;20456;-81
2023/01/15 00:58:46;;;;;;;358.67;345.47;;;5.70;99.90;;;;;;5000612;28;20450;-81
2023/01/15 01:01:13;;;;;;;297.57;287.20;;;5.70;99.90;;;;;;5000176;28;20481;-81
2023/01/15 01:03:40;;;;;;;249.13;241.03;;;5.60;99.90;;;;;;5000939;28;20540;-81
2023/01/15 01:06:07;;;;;;;159.00;153.63;;;5.50;99.90;;;;;;5000392;28;20461;-81
2023/01/15 01:08:35;;;;;;;103.43;99.57;;;5.50;99.90;;;;;;5000942;28;20454;-81
2023/01/15 01:11:04;;;;;;;78.43;75.60;;;5.50;99.90;;;;;;5000656;28;20474;-82
2023/01/15 01:13:30;;;;;;;68.07;65.57;;;5.50;99.90;;;;;;5000769;28;20484;-82
2023/01/15 01:15:58;;;;;;;28.30;27.20;;;5.40;99.90;;;;;;4999245;28;20851;-83
2023/01/15 01:18:25;;;;;;;24.03;22.90;;;5.40;99.90;;;;;;5001608;28;20829;-80
2023/01/15 01:20:52;;;;;;;12.30;11.27;;;5.40;99.90;;;;;;5000408;28;20474;-82
2023/01/15 01:23:19;;;;;;;6.40;4.80;;;5.40;99.90;;;;;;5000292;28;20454;-81
2023/01/15 01:25:47;;;;;;;6.70;6.20;;;5.30;99.90;;;;;;5000270;28;20458;-81
2023/01/15 01:28:13;;;;;;;6.83;5.00;;;5.30;99.90;;;;;;5001444;28;20458;-82
2023/01/15 01:30:40;;;;;;;4.03;3.63;;;5.40;99.90;;;;;;5000454;28;20553;-83
2023/01/15 01:33:07;;;;;;;4.70;4.00;;;5.40;99.90;;;;;;5000847;28;20453;-82
2023/01/15 01:35:34;;;;;;;5.83;3.00;;;5.40;99.90;;;;;;5000815;28;20482;-81
2023/01/15 01:38:01;;;;;;;3.77;2.87;;;5.40;99.90;;;;;;5000231;28;20478;-83
2023/01/15 01:40:28;;;;;;;7.20;6.60;;;5.50;99.90;;;;;;5001075;28;20854;-82
2023/01/15 01:42:56;;;;;;;10.40;9.80;;;5.50;99.90;;;;;;5000237;28;20450;-82
2023/01/15 01:45:26;;;;;;;10.90;10.30;;;5.50;99.90;;;;;;5001033;28;20450;-83
2023/01/15 01:47:59;;;;;;;7.80;7.30;;;5.50;99.90;;;;;;4999601;28;20820;-82
2023/01/15 01:50:27;;;;;;;8.63;8.10;;;5.50;99.90;;;;;;5000794;28;20482;-82
2023/01/15 01:52:58;;;;;;;9.57;9.07;;;5.50;99.90;;;;;;5000278;28;20478;-82
2023/01/15 01:55:26;;;;;;;7.47;6.97;;;5.60;99.90;;;;;;5001038;28;20509;-82
2023/01/15 01:57:59;;;;;;;10.33;9.67;;;5.60;99.90;;;;;;4999788;28;20454;-82
2023/01/15 02:00:26;;;;;;;14.57;13.30;;;5.60;99.90;;;;;;5000369;28;20485;-81
2023/01/15 02:02:54;;;;;;;18.20;17.00;;;5.60;99.90;;;;;;5000365;28;20996;-82
2023/01/15 02:05:28;;;;;;;18.67;17.67;;;5.60;99.90;;;;;;5000355;28;20456;-81
2023/01/15 02:07:55;;;;;;;26.07;25.03;;;5.60;99.90;;;;;;5000156;28;20450;-82
2023/01/15 02:10:22;;;;;;;29.87;28.57;;;5.60;99.90;;;;;;5001034;28;20474;-82
2023/01/15 02:12:56;;;;;;;33.43;32.13;;;5.60;99.90;;;;;;5000763;28;20460;-81
2023/01/15 02:15:29;;;;;;;31.67;30.47;;;5.70;99.90;;;;;;5000933;28;20466;-81
2023/01/15 02:18:05;;;;;;;26.40;25.20;;;5.60;99.90;;;;;;5000438;28;20739;-81
2023/01/15 02:20:37;;;;;;;21.80;20.50;;;5.60;99.90;;;;;;5000619;28;20473;-82
2023/01/15 02:23:23;;;;;;;17.10;16.30;;;5.60;99.90;;;;;;5000329;28;20468;-82
2023/01/15 02:26:07;;;;;;;16.67;15.87;;;5.60;99.90;;;;;;5001103;28;20454;-84
2023/01/15 02:28:40;;;;;;;15.90;14.70;;;5.70;99.90;;;;;;5003918;28;20446;-82
2023/01/15 02:31:12;;;;;;;21.00;20.00;;;5.70;99.90;;;;;;5004017;28;20549;-82
2023/01/15 02:33:45;;;;;;;24.27;23.07;;;5.70;99.90;;;;;;5003896;28;20453;-82
2023/01/15 02:36:15;;;;;;;22.50;21.37;;;5.70;99.90;;;;;;5003952;28;20486;-81
2023/01/15 02:38:47;;;;;;;18.37;17.57;;;5.80;99.90;;;;;;5003260;28;20454;-81
2023/01/15 02:41:16;;;;;;;24.87;23.57;;;5.70;99.90;;;;;;5004368;28;20470;-82
2023/01/15 02:43:49;;;;;;;15.20;14.40;;;5.70;99.90;;;;;;5003729;28;20457;-82
2023/01/15 02:46:18;;;;;;;12.20;11.33;;;5.80;99.90;;;;;;5003524;28;20454;-81
2023/01/15 02:48:50;;;;;;;10.97;10.27;;;5.80;99.90;;;;;;5003865;28;20451;-82
2023/01/15 02:51:21;;;;;;;9.57;8.97;;;5.80;99.90;;;;;;5004261;28;20478;-82
2023/01/15 02:53:51;;;;;;;9.87;9.03;;;5.70;99.90;;;;;;5003619;28;20446;-81
2023/01/15 02:56:20;;;;;;;8.40;7.80;;;5.80;99.90;;;;;;5003643;28;20863;-81
2023/01/15 02:58:52;;;;;;;8.30;7.10;;;5.80;99.90;;;;;;5003642;28;20457;-81
2023/01/15 03:01:24;;;;;;;13.63;6.17;;;5.90;99.90;;;;;;5003598;28;20473;-82
2023/01/15 03:03:57;;;;;;;8.10;7.50;;;5.90;99.90;;;;;;5003720;28;20948;-81
2023/01/15 03:06:33;;;;;;;10.80;10.10;;;5.90;99.90;;;;;;5003160;28;20541;-81
2023/01/15 03:09:01;;;;;;;6.97;6.37;;;5.90;99.90;;;;;;5003867;28;20492;-80
2023/01/15 03:11:28;;;;;;;5.40;5.00;;;5.90;99.90;;;;;;5002461;28;20470;-81
2023/01/15 03:14:02;;;;;;;6.30;4.30;;;6.00;99.90;;;;;;5003915;28;20468;-82
2023/01/15 03:16:35;;;;;;;5.00;4.50;;;6.00;99.90;;;;;;5002263;28;20976;-80
2023/01/15 03:19:11;;;;;;;7.10;4.20;;;6.00;99.90;;;;;;5003510;28;20553;-81
2023/01/15 03:21:46;;;;;;;5.77;5.20;;;6.00;99.90;;;;;;5002626;28;20480;-80
2023/01/15 03:24:18;;;;;;;17.60;8.90;;;6.00;99.90;;;;;;5003426;28;20454;-81
2023/01/15 03:26:47;;;;;;;12.60;8.93;;;6.00;99.90;;;;;;5002916;28;20450;-81
2023/01/15 03:29:16;;;;;;;8.63;7.60;;;6.10;99.90;;;;;;5003140;28;20479;-81
2023/01/15 03:31:43;;;;;;;12.67;11.80;;;6.00;99.90;;;;;;5002339;28;20482;-82
2023/01/15 03:34:11;;;;;;;9.30;8.67;;;6.00;99.90;;;;;;5002942;28;20493;-81
2023/01/15 03:36:38;;;;;;;8.23;7.53;;;6.10;99.90;;;;;;5001682;28;20537;-82
2023/01/15 03:39:05;;;;;;;10.90;6.53;;;6.00;99.90;;;;;;5003116;28;20464;-81
2023/01/15 03:41:44;;;;;;;5.00;4.03;;;6.00;99.90;;;;;;5001847;28;20478;-81
2023/01/15 03:44:22;;;;;;;6.20;3.30;;;6.00;99.90;;;;;;5003108;28;20442;-82
2023/01/15 03:47:02;;;;;;;8.30;2.40;;;6.10;99.90;;;;;;5002355;28;20453;-82
2023/01/15 03:49:40;;;;;;;3.97;2.60;;;6.00;99.90;;;;;;5002967;28;20449;-81
2023/01/15 03:52:13;;;;;;;5.03;2.63;;;6.00;99.90;;;;;;5002884;28;21000;-80
2023/01/15 03:54:47;;;;;;;3.93;2.20;;;6.00;99.90;;;;;;5003046;28;20442;-82
2023/01/15 03:57:18;;;;;;;8.13;1.83;;;5.90;99.90;;;;;;5002578;28;20464;-81
2023/01/15 03:59:51;;;;;;;6.47;1.40;;;5.90;99.90;;;;;;5002683;28;20839;-82
2023/01/15 04:02:19;;;;;;;7.73;1.60;;;5.90;99.90;;;;;;5002009;28;20461;-83
2023/01/15 04:04:47;;;;;;;8.50;1.67;;;5.90;99.90;;;;;;5002466;28;20458;-81
2023/01/15 04:07:14;;;;;;;4.00;1.47;;;5.90;99.90;;;;;;5000888;28;20477;-81
2023/01/15 04:09:41;;;;;;;3.23;1.20;;;5.90;99.90;;;;;;5002361;28;20454;-81
2023/01/15 04:12:08;;;;;;;7.03;1.70;;;5.90;99.90;;;;;;5001868;28;20465;-81
2023/01/15 04:14:35;;;;;;;4.80;1.67;;;5.90;99.90;;;;;;5001828;28;20458;-81
2023/01/15 04:17:03;;;;;;;5.80;2.00;;;5.90;99.90;;;;;;5001074;28;20473;-81
2023/01/15 04:19:30;;;;;;;21.23;2.03;;;5.90;99.90;;;;;;5002367;28;20457;-81
2023/01/15 04:21:57;;;;;;;12.90;2.03;;;5.90;99.90;;;;;;5001936;28;20557;-81
2023/01/15 04:24:23;;;;;;;3.33;1.50;;;5.90;99.90;;;;;;5001561;28;20977;-80
2023/01/15 04:26:50;;;;;;;7.50;2.10;;;5.90;99.90;;;;;;5001395;28;20443;-80
2023/01/15 04:29:17;;;;;;;8.63;2.07;;;6.00;99.90;;;;;;5002181;28;20465;-81
2023/01/15 04:31:44;;;;;;;6.53;2.27;;;6.00;99.90;;;;;;5001026;28;20492;-80
2023/01/15 04:34:12;;;;;;;5.00;2.10;;;6.00;99.90;;;;;;5001263;28;20450;-81
2023/01/15 04:36:39;;;;;;;3.67;2.00;;;6.00;99.90;;;;;;5000617;28;20501;-80
2023/01/15 04:39:06;;;;;;;4.37;1.97;;;6.00;99.90;;;;;;5001286;28;20465;-81
2023/01/15 04:44:16;;;;;;;10.20;2.73;;;6.10;99.90;;;;;;5000080;28;20453;-81
2023/01/15 04:46:44;;;;;;;7.37;2.10;;;6.10;99.90;;;;;;5000022;28;20453;-82
2023/01/15 04:49:15;;;;;;;4.90;1.70;;;6.10;99.90;;;;;;5000203;28;20454;-81
2023/01/15 04:51:41;;;;;;;5.10;1.70;;;6.10;99.90;;;;;;5001936;28;20477;-81
2023/01/15 04:54:10;;;;;;;5.93;2.33;;;6.10;99.90;;;;;;5000465;28;20450;-80
2023/01/15 04:56:40;;;;;;;6.50;1.83;;;6.10;99.90;;;;;;4983118;28;20482;-83
2023/01/15 04:59:07;;;;;;;4.33;2.20;;;6.10;99.90;;;;;;4987585;28;20458;-82
2023/01/15 05:01:34;;;;;;;7.43;2.20;;;6.10;99.90;;;;;;5000235;28;20470;-81
2023/01/15 05:04:01;;;;;;;9.23;2.73;;;6.10;99.90;;;;;;5000884;28;20458;-81
2023/01/15 05:06:30;;;;;;;6.20;2.13;;;6.10;99.90;;;;;;5000881;28;20837;-82
2023/01/15 05:08:57;;;;;;;7.20;2.27;;;6.10;99.90;;;;;;5001289;28;20462;-81
2023/01/15 05:11:24;;;;;;;6.87;2.27;;;6.10;99.90;;;;;;5001078;28;20474;-81
2023/01/15 05:13:51;;;;;;;10.20;3.37;;;6.10;99.90;;;;;;5000690;28;20461;-82
2023/01/15 05:16:20;;;;;;;12.33;2.60;;;6.10;99.90;;;;;;5000967;28;20477;-81
2023/01/15 05:18:47;;;;;;;5.63;2.43;;;6.10;99.90;;;;;;4999845;28;20458;-81
2023/01/15 05:21:20;;;;;;;5.63;2.20;;;6.10;99.90;;;;;;5000458;28;20501;-82
2023/01/15 05:23:56;;;;;;;5.57;2.33;;;6.10;99.90;;;;;;5001040;28;20481;-81
2023/01/15 05:26:23;;;;;;;5.90;2.27;;;6.10;99.90;;;;;;5000236;28;20887;-82
2023/01/15 05:28:53;;;;;;;3.90;1.80;;;6.10;99.90;;;;;;5001075;28;20458;-82
2023/01/15 05:31:21;;;;;;;7.83;2.47;;;6.10;99.90;;;;;;5001494;28;20525;-81
2023/01/15 05:33:49;;;;;;;7.53;2.27;;;6.10;99.90;;;;;;5000493;28;20450;-82
2023/01/15 05:36:17;;;;;;;8.53;2.73;;;6.00;99.90;;;;;;5001425;28;20485;-82
2023/01/15 05:38:44;;;;;;;6.20;1.50;;;6.10;99.90;;;;;;5000361;28;20855;-83
2023/01/15 05:44:01;;;;;;;13.30;2.27;;;6.20;99.90;;;;;;5000057;28;20452;-82
2023/01/15 05:46:28;;;;;;;8.50;1.83;;;6.20;99.90;;;;;;5001063;28;20446;-82
2023/01/15 05:48:55;;;;;;;6.30;1.33;;;6.10;99.90;;;;;;5000567;28;20450;-82
2023/01/15 05:51:21;;;;;;;10.27;1.43;;;6.20;99.90;;;;;;5000685;28;20470;-82
2023/01/15 05:53:48;;;;;;;10.53;1.83;;;6.10;99.90;;;;;;5000391;28;20477;-82
2023/01/15 05:56:16;;;;;;;6.17;1.70;;;6.10;99.90;;;;;;4996660;28;20482;-82
2023/01/15 05:58:43;;;;;;;6.90;1.47;;;6.20;99.90;;;;;;4985732;28;20462;-82
2023/01/15 06:01:11;;;;;;;4.17;1.60;;;6.10;99.90;;;;;;5001331;28;20476;-82
2023/01/15 06:03:38;;;;;;;7.80;2.50;;;6.20;99.90;;;;;;5004144;28;20446;-82
2023/01/15 06:06:05;;;;;;;6.47;1.47;;;6.30;99.90;;;;;;5004823;28;20442;-81
2023/01/15 06:08:32;;;;;;;11.73;1.83;;;6.30;99.90;;;;;;5004195;28;20489;-81
2023/01/15 06:10:59;;;;;;;5.97;1.77;;;6.40;99.90;;;;;;5004815;28;20564;-82
2023/01/15 06:13:27;;;;;;;10.10;1.93;;;6.50;99.90;;;;;;5004507;28;20525;-82
2023/01/15 06:15:54;;;;;;;14.77;2.00;;;6.50;99.90;;;;;;5003653;28;20470;-82
2023/01/15 06:18:22;;;;;;;5.73;1.53;;;6.60;99.90;;;;;;5003077;28;20849;-81
2023/01/15 06:20:49;;;;;;;12.70;1.90;;;6.60;99.90;;;;;;5002954;28;20481;-80
2023/01/15 06:23:17;;;;;;;10.87;2.07;;;6.50;99.90;;;;;;5003280;28;20454;-82
2023/01/15 06:25:45;;;;;;;6.70;1.80;;;6.60;99.90;;;;;;5003961;28;20514;-82
2023/01/15 06:28:12;;;;;;;5.70;1.90;;;6.50;99.90;;;;;;5003123;28;20454;-80
2023/01/15 06:30:40;;;;;;;4.40;1.57;;;6.60;99.90;;;;;;5002942;28;20481;-82
2023/01/15 06:33:07;;;;;;;4.63;1.43;;;6.50;99.90;;;;;;5003911;28;20450;-82
2023/01/15 06:35:34;;;;;;;14.87;2.00;;;6.60;99.90;;;;;;5002320;28;20457;-79
2023/01/15 06:38:01;;;;;;;6.40;3.43;;;6.50;99.90;;;;;;5002098;28;20832;-81
2023/01/15 06:40:28;;;;;;;5.70;2.40;;;6.50;99.90;;;;;;4997970;28;20474;-81
2023/01/15 06:48:28;;;;;;;11.07;1.93;;;6.50;99.90;;;;;;4986436;28;20890;-81
2023/01/15 06:50:55;;;;;;;9.27;3.30;;;6.60;99.90;;;;;;5003228;28;20466;-81
2023/01/15 06:53:22;;;;;;;6.27;2.43;;;6.60;99.90;;;;;;5002891;28;20442;-81
2023/01/15 06:55:48;;;;;;;7.20;2.77;;;6.50;99.90;;;;;;5002374;28;20489;-81
2023/01/15 06:58:15;;;;;;;4.13;1.97;;;6.60;99.90;;;;;;5002728;28;20454;-83
2023/01/15 07:00:45;;;;;;;9.20;1.90;;;6.60;99.90;;;;;;5002322;28;20498;-81
2023/01/15 07:03:13;;;;;;;7.23;2.40;;;6.60;99.90;;;;;;5003666;28;20481;-82
2023/01/15 07:05:40;;;;;;;9.37;1.97;;;6.50;99.90;;;;;;5002129;28;20454;-82
2023/01/15 07:08:07;;;;;;;10.90;2.60;;;6.50;99.90;;;;;;5003098;28;20453;-81
2023/01/15 07:10:34;;;;;;;9.80;5.40;;;6.50;99.90;;;;;;5000686;28;20474;-82
2023/01/15 07:13:01;;;;;;;7.60;4.23;;;6.50;99.90;;;;;;5002218;28;20866;-81
2023/01/15 07:15:29;;;;;;;12.20;5.67;;;6.50;99.90;;;;;;5002693;28;20457;-80
2023/01/15 07:17:58;;;;;;;10.00;6.07;;;6.50;99.90;;;;;;5002059;28;20482;-81
2023/01/15 07:20:24;;;;;;;13.20;6.03;;;6.50;99.90;;;;;;5001269;28;20477;-80
2023/01/15 07:22:52;;;;;;;7.20;4.87;;;6.60;99.90;;;;;;5001363;28;20481;-80
2023/01/15 07:25:19;;;;;;;10.33;3.37;;;6.50;99.90;;;;;;5000606;28;20460;-81
2023/01/15 07:27:46;;;;;;;6.10;2.00;;;6.60;99.90;;;;;;5002387;28;20457;-81
2023/01/15 07:30:14;;;;;;;5.70;2.10;;;6.60;99.90;;;;;;5001451;28;20479;-81
2023/01/15 07:32:41;;;;;;;8.40;3.40;;;6.60;99.90;;;;;;5003087;28;20465;-82
2023/01/15 07:35:09;;;;;;;7.40;3.03;;;6.60;99.90;;;;;;5002241;28;20876;-81
2023/01/15 07:37:36;;;;;;;7.93;2.60;;;6.70;99.90;;;;;;5001636;28;20478;-81
2023/01/15 07:40:04;;;;;;;11.90;2.90;;;6.60;99.90;;;;;;5001627;28;20474;-81
2023/01/15 07:50:44;;;;;;;3.40;1.80;;;6.50;99.90;;;;;;5001525;28;20469;-81
2023/01/15 07:53:11;;;;;;;4.60;1.87;;;6.50;99.90;;;;;;5001208;28;20454;-81
2023/01/15 07:55:38;;;;;;;10.30;2.17;;;6.50;99.90;;;;;;5002221;28;20465;-80
2023/01/15 07:58:04;;;;;;;7.73;2.07;;;6.60;99.90;;;;;;5001570;28;20482;-80
2023/01/15 08:00:31;;;;;;;4.43;1.60;;;6.50;99.90;;;;;;5002484;28;20480;-81
2023/01/15 08:02:58;;;;;;;5.53;1.67;;;6.60;99.90;;;;;;5001548;28;20453;-81
2023/01/15 08:05:24;;;;;;;7.00;1.60;;;6.70;99.90;;;;;;5001941;28;20815;-81
2023/01/15 08:07:52;;;;;;;11.30;1.50;;;6.60;99.90;;;;;;5001523;28;20442;-80
2023/01/15 08:10:19;;;;;;;5.13;1.70;;;6.50;99.90;;;;;;5001770;28;20469;-81
2023/01/15 08:15:38;;;;;;;5.73;1.30;;;6.50;99.90;;;;;;5001671;28;20980;-81
2023/01/15 08:18:05;;;;;;;4.73;1.20;;;6.40;99.90;;;;;;4999902;28;20481;-82
2023/01/15 08:20:36;;;;;;;3.73;1.60;;;6.40;99.90;;;;;;5000849;28;21043;-79
2023/01/15 08:23:06;;;;;;;13.00;2.23;;;6.40;99.90;;;;;;4999970;28;20870;-80
2023/01/15 08:25:33;;;;;;;8.27;1.43;;;6.30;99.90;;;;;;4998807;28;20469;-81
2023/01/15 08:28:02;;;;;;;7.80;1.47;;;6.30;99.90;;;;;;4999378;28;20461;-80
2023/01/15 08:30:29;;;;;;;5.90;1.77;;;6.20;99.90;;;;;;5000674;28;20763;-81
2023/01/15 08:33:01;;;;;;;3.70;1.13;;;6.20;99.90;;;;;;4999661;28;20494;-80
2023/01/15 08:35:28;;;;;;;4.73;1.40;;;6.10;99.90;;;;;;4999493;28;20458;-81
2023/01/15 08:37:54;;;;;;;7.83;1.30;;;6.10;99.90;;;;;;4998318;28;20470;-80
2023/01/15 08:40:22;;;;;;;4.60;1.73;;;6.10;99.90;;;;;;4979815;28;21005;-80
2023/01/15 08:42:49;;;;;;;3.20;1.10;;;6.00;99.90;;;;;;4999648;28;20458;-82
2023/01/15 08:45:16;;;;;;;4.00;1.13;;;6.00;99.90;;;;;;5000101;28;20808;-81
2023/01/15 08:47:43;;;;;;;3.67;1.47;;;6.00;99.90;;;;;;4999974;28;20846;-80
2023/01/15 08:50:11;;;;;;;8.13;1.43;;;5.90;99.90;;;;;;4999828;28;20470;-81
2023/01/15 08:52:38;;;;;;;3.87;1.53;;;5.90;99.90;;;;;;4999955;28;20552;-81
2023/01/15 08:55:06;;;;;;;6.40;2.10;;;5.90;99.90;;;;;;4999002;28;20481;-81
2023/01/15 08:57:34;;;;;;;5.17;2.10;;;5.80;99.90;;;;;;4999682;28;20546;-81
2023/01/15 09:00:01;;;;;;;6.63;2.20;;;5.80;99.90;;;;;;4998491;28;20453;-81
2023/01/15 09:02:28;;;;;;;12.33;2.00;;;5.80;99.90;;;;;;4999892;28;20482;-81
2023/01/15 09:04:55;;;;;;;11.33;2.10;;;5.70;99.90;;;;;;5000205;28;20457;-81
2023/01/15 09:07:22;;;;;;;7.73;2.17;;;5.70;99.90;;;;;;4999035;28;20458;-80
2023/01/15 09:09:48;;;;;;;5.87;2.27;;;5.60;99.90;;;;;;4998624;28;20485;-80
2023/01/15 09:12:16;;;;;;;19.63;3.10;;;5.60;99.90;;;;;;4999097;28;20458;-81
2023/01/15 09:14:44;;;;;;;12.83;3.13;;;5.60;99.90;;;;;;4998515;28;20458;-80
2023/01/15 09:17:10;;;;;;;9.13;2.40;;;5.60;99.90;;;;;;4997885;28;20474;-80
2023/01/15 09:19:37;;;;;;;5.17;2.00;;;5.60;99.90;;;;;;4999076;28;20823;-81
2023/01/15 09:22:04;;;;;;;6.50;3.00;;;5.60;99.90;;;;;;4998922;28;20474;-80
2023/01/15 09:24:31;;;;;;;10.87;2.77;;;5.70;99.90;;;;;;4999892;28;20877;-83
2023/01/15 09:26:58;;;;;;;5.20;2.33;;;5.80;99.90;;;;;;5000242;28;20490;-81
2023/01/15 09:29:25;;;;;;;10.80;2.80;;;5.70;99.90;;;;;;4999718;28;20945;-81
2023/01/15 09:31:54;;;;;;;7.73;2.20;;;5.70;99.90;;;;;;4989347;28;20514;-80
2023/01/15 09:34:20;;;;;;;8.97;3.17;;;5.90;99.90;;;;;;4980145;28;20479;-80
2023/01/15 09:36:49;;;;;;;7.07;2.23;;;6.10;99.90;;;;;;4984664;28;20474;-81
2023/01/15 09:39:16;;;;;;;12.43;2.47;;;6.30;99.90;;;;;;4998591;28;20486;-80
2023/01/15 09:42:06;;;;;;;7.50;2.47;;;6.40;99.90;;;;;;5003441;28;20470;-81
2023/01/15 09:44:42;;;;;;;8.00;2.00;;;6.40;99.90;;;;;;5002044;28;20457;-81
2023/01/15 09:47:14;;;;;;;6.47;2.17;;;6.30;99.90;;;;;;5003682;28;20446;-80
2023/01/15 09:49:56;;;;;;;4.60;1.97;;;6.40;99.90;;;;;;5002302;28;20461;-81
2023/01/15 09:52:31;;;;;;;11.80;2.67;;;6.40;99.90;;;;;;5003673;28;20996;-81
2023/01/15 09:55:05;;;;;;;11.30;1.73;;;6.50;99.90;;;;;;5004595;28;20453;-81
2023/01/15 09:57:33;;;;;;;9.50;2.67;;;6.60;99.90;;;;;;5000731;28;20483;-80
2023/01/15 10:00:02;;;;;;;6.83;1.63;;;6.60;99.90;;;;;;5000637;28;20458;-81
2023/01/15 10:02:35;;;;;;;8.83;1.80;;;6.70;99.90;;;;;;5003082;28;20911;-81
2023/01/15 10:05:09;;;;;;;7.37;1.50;;;6.90;99.90;;;;;;5001637;28;20450;-81
2023/01/15 10:07:42;;;;;;;6.03;1.63;;;6.90;99.90;;;;;;5002549;28;20464;-80
2023/01/15 10:10:13;;;;;;;7.93;2.33;;;7.10;99.90;;;;;;5004219;28;20988;-81
2023/01/15 10:12:44;;;;;;;7.93;2.37;;;7.20;99.90;;;;;;5003242;28;20460;-81
2023/01/15 10:15:27;;;;;;;9.83;1.50;;;7.20;99.90;;;;;;5003562;28;20520;-81
2023/01/15 10:17:58;;;;;;;13.60;1.73;;;7.30;99.90;;;;;;5002224;28;20481;-81
2023/01/15 10:20:41;;;;;;;13.80;2.97;;;7.30;99.90;;;;;;5002413;28;20853;-81
2023/01/15 10:23:20;;;;;;;10.93;1.90;;;7.40;99.90;;;;;;5003530;28;20446;-82
2023/01/15 10:25:50;;;;;;;7.63;1.90;;;7.40;99.90;;;;;;5000921;28;20952;-78
2023/01/15 10:28:23;;;;;;;8.13;2.00;;;7.40;99.90;;;;;;4999253;28;20449;-82
2023/01/15 10:30:53;;;;;;;7.13;1.43;;;7.30;99.90;;;;;;5001356;28;20223;-81
2023/01/15 10:33:37;;;;;;;4.90;1.20;;;7.20;99.90;;;;;;5002524;28;20454;-81
2023/01/15 10:36:10;;;;;;;9.83;1.73;;;7.40;99.90;;;;;;5002361;28;20469;-81
2023/01/15 10:38:51;;;;;;;5.67;1.67;;;7.50;99.90;;;;;;5003962;28;20482;-81
2023/01/15 10:41:31;;;;;;;7.40;1.97;;;7.60;99.90;;;;;;5002341;28;20501;-80
2023/01/15 10:44:05;;;;;;;5.80;1.13;;;7.70;99.90;;;;;;5002029;28;20524;-82
2023/01/15 10:46:37;;;;;;;7.50;1.87;;;7.50;99.90;;;;;;5000418;28;20841;-81
2023/01/15 10:49:11;;;;;;;6.10;1.30;;;7.50;99.90;;;;;;5002847;28;20465;-80
2023/01/15 10:51:42;;;;;;;7.00;1.43;;;7.70;99.90;;;;;;5003521;28;20474;-81
2023/01/15 10:54:17;;;;;;;11.83;2.10;;;7.80;99.90;;;;;;5002547;28;20458;-81
2023/01/15 10:56:52;;;;;;;5.83;1.13;;;7.80;99.90;;;;;;5003097;28;20453;-80
2023/01/15 10:59:24;;;;;;;7.13;1.60;;;7.90;99.90;;;;;;5002362;28;20968;-83
2023/01/15 11:01:53;;;;;;;4.47;1.10;;;8.10;99.90;;;;;;5003114;28;20541;-81
2023/01/15 11:04:22;;;;;;;9.73;2.03;;;7.90;99.90;;;;;;5003236;28;20839;-82
2023/01/15 11:06:49;;;;;;;6.60;1.57;;;8.00;99.90;;;;;;5002560;28;20450;-81
2023/01/15 11:09:22;;;;;;;11.97;2.20;;;7.90;99.90;;;;;;5003235;28;20461;-81
2023/01/15 11:20:21;;;;;;;5.27;1.73;;;8.10;98.70;;;;;;5002534;28;20456;-83
2023/01/15 11:22:48;;;;;;;7.53;1.70;;;8.10;98.60;;;;;;5001166;28;20521;-81
2023/01/15 11:25:29;;;;;;;7.10;1.40;;;8.10;98.90;;;;;;5002934;28;20465;-82
2023/01/15 11:27:56;;;;;;;6.23;1.43;;;8.10;98.90;;;;;;5003150;28;20437;-80
2023/01/15 11:30:28;;;;;;;6.50;1.67;;;8.20;99.30;;;;;;5002536;28;20486;-81
2023/01/15 11:32:57;;;;;;;4.57;0.90;;;8.10;99.50;;;;;;5001436;28;20450;-81
2023/01/15 11:35:30;;;;;;;5.40;1.10;;;8.00;98.50;;;;;;5000816;28;20870;-81
2023/01/15 11:38:04;;;;;;;5.77;1.50;;;7.90;99.60;;;;;;5002560;28;20866;-81
2023/01/15 11:40:31;;;;;;;4.83;1.40;;;7.80;99.60;;;;;;5002383;28;20477;-80
2023/01/15 11:51:32;;;;;;;7.40;2.10;;;8.00;99.30;;;;;;4999536;28;20541;-81
2023/01/15 11:54:04;;;;;;;5.50;1.33;;;8.00;99.10;;;;;;5001405;28;20454;-81
2023/01/15 11:56:35;;;;;;;4.53;1.70;;;8.10;98.50;;;;;;5000654;28;20478;-81
2023/01/15 11:59:09;;;;;;;4.10;1.30;;;8.60;98.20;;;;;;5001595;28;20480;-81
2023/01/15 12:01:38;;;;;;;8.57;2.00;;;8.50;97.50;;;;;;5001699;28;20536;-81
2023/01/15 12:04:07;;;;;;;4.20;1.40;;;8.40;97.60;;;;;;5000119;28;20458;-81
2023/01/15 12:06:39;;;;;;;5.37;1.70;;;8.60;97.60;;;;;;4991170;28;20454;-83
2023/01/15 12:09:16;;;;;;;8.73;1.23;;;8.60;97.50;;;;;;5000079;28;20451;-84
2023/01/15 12:11:53;;;;;;;4.03;1.20;;;8.50;96.60;;;;;;4995059;28;20496;-81
2023/01/15 12:14:35;;;;;;;4.47;0.90;;;9.10;96.40;;;;;;5002190;28;20477;-82
2023/01/15 12:17:13;;;;;;;4.33;1.20;;;9.40;96.40;;;;;;5002541;28;20456;-82
2023/01/15 12:19:50;;;;;;;4.77;0.90;;;8.80;95.00;;;;;;5001251;28;20477;-82
2023/01/15 12:22:45;;;;;;;4.57;1.40;;;8.90;95.40;;;;;;5001951;28;20458;-83
2023/01/15 12:25:27;;;;;;;6.90;1.30;;;8.40;97.30;;;;;;5001474;28;20454;-82
2023/01/15 12:28:00;;;;;;;7.03;1.70;;;8.40;97.40;;;;;;5001521;28;20842;-82
2023/01/15 12:30:38;;;;;;;5.53;1.10;;;8.60;96.90;;;;;;5000247;28;20485;-82
2023/01/15 12:33:21;;;;;;;4.53;1.20;;;8.70;96.30;;;;;;4997254;28;20580;-82
2023/01/15 12:35:55;;;;;;;9.57;1.87;;;8.90;95.30;;;;;;4999932;28;20450;-83
2023/01/15 12:38:42;;;;;;;7.13;1.20;;;9.20;95.10;;;;;;5000635;28;20473;-82
2023/01/15 12:41:13;;;;;;;6.70;1.20;;;9.50;93.90;;;;;;5001491;28;20477;-82
2023/01/15 12:46:33;;;;;;;9.63;1.53;;;9.70;92.90;;;;;;5001386;28;20526;-83
2023/01/15 12:49:09;;;;;;;5.80;1.40;;;9.50;93.30;;;;;;4999745;28;20738;-82
2023/01/15 12:51:45;;;;;;;5.70;1.33;;;9.70;93.30;;;;;;5001715;28;20556;-82
2023/01/15 12:54:23;;;;;;;4.93;1.50;;;9.50;93.50;;;;;;5000762;28;20446;-81
2023/01/15 12:56:56;;;;;;;10.40;1.37;;;9.20;93.70;;;;;;4998143;28;20832;-82
2023/01/15 12:59:29;;;;;;;6.70;1.10;;;8.80;94.80;;;;;;5000420;28;20480;-82
2023/01/15 13:02:13;;;;;;;4.67;1.23;;;8.70;95.10;;;;;;5002137;28;20509;-82
2023/01/15 13:04:47;;;;;;;3.80;1.00;;;8.60;95.70;;;;;;5001563;28;20446;-83
2023/01/15 13:07:20;;;;;;;4.20;1.00;;;8.90;94.40;;;;;;5001972;28;20881;-80
2023/01/15 13:09:59;;;;;;;10.47;1.23;;;9.30;93.40;;;;;;4998004;28;20461;-83
2023/01/15 13:12:28;;;;;;;6.03;1.23;;;9.70;92.80;;;;;;4981915;28;20482;-83
2023/01/15 13:14:57;;;;;;;4.87;1.10;;;10.00;92.00;;;;;;4992971;28;20450;-83
2023/01/15 13:17:33;;;;;;;9.30;1.27;;;10.00;91.00;;;;;;5001572;28;20442;-81
2023/01/15 13:20:25;;;;;;;6.97;1.27;;;10.10;91.00;;;;;;5001459;28;20479;-82
2023/01/15 13:23:03;;;;;;;4.20;1.27;;;10.10;90.70;;;;;;5001185;28;20482;-82
2023/01/15 13:25:53;;;;;;;4.43;1.13;;;10.20;90.10;;;;;;5002857;28;20516;-81
2023/01/15 13:28:42;;;;;;;4.50;0.90;;;9.90;90.30;;;;;;5001717;28;20509;-82
2023/01/15 13:31:31;;;;;;;6.60;1.00;;;9.70;91.30;;;;;;5002464;28;20505;-81
2023/01/15 13:34:03;;;;;;;5.47;1.37;;;9.20;91.10;;;;;;5000885;28;20454;-82
2023/01/15 13:36:36;;;;;;;8.60;1.00;;;9.00;92.40;;;;;;5002203;28;20453;-82
2023/01/15 13:39:08;;;;;;;5.73;1.10;;;8.70;92.70;;;;;;4982365;28;20470;-82
2023/01/15 13:44:24;;;;;;;6.50;1.10;;;8.50;94.10;;;;;;4982902;28;21005;-82
2023/01/15 13:47:02;;;;;;;5.17;1.40;;;8.30;94.10;;;;;;4983578;28;20439;-82
2023/01/15 13:49:33;;;;;;;7.20;1.20;;;8.20;94.40;;;;;;5001493;28;20521;-82
2023/01/15 13:52:03;;;;;;;6.23;1.27;;;8.10;93.70;;;;;;5000770;28;20478;-82
2023/01/15 13:54:32;;;;;;;3.50;0.90;;;8.10;94.00;;;;;;5002478;28;20454;-82
2023/01/15 13:57:08;;;;;;;4.00;1.30;;;8.00;94.30;;;;;;5000598;28;20458;-82